sensor_id;sensor_type;location;lat;lon;timestamp;P1;durP1;ratioP1;P2;durP2;ratioP2
73142;SDS011;61343;53.694;9.988;2022-08-03T00:01:35;8.68;;;5.95;;
73142;SDS011;61343;53.694;9.988;2022-08-03T00:04:01;9.68;;;6.55;;
73142;SDS011;61343;53.694;9.988;2022-08-03T00:06:27;9.70;;;6.43;;
73142;SDS011;61343;53.694;9.988;2022-08-03T00:08:52;10.73;;;6.50;;
73142;SDS011;61343;53.694;9.988;2022-08-03T00:11:18;11.20;;;6.50;;
73142;SDS011;61343;53.694;9.988;2022-08-03T00:13:43;9.87;;;6.33;;
73142;SDS011;61343;53.694;9.988;2022-08-03T00:16:09;8.73;;;6.27;;
73142;SDS011;61343;53.694;9.988;2022-08-03T00:18:34;11.05;;;6.15;;
73142;SDS011;61343;53.694;9.988;2022-08-03T00:21:01;8.87;;;6.40;;
73142;SDS011;61343;53.694;9.988;2022-08-03T00:23:27;10.40;;;6.38;;
73142;SDS011;61343;53.694;9.988;2022-08-03T00:25:53;10.67;;;6.60;;
73142;SDS011;61343;53.694;9.988;2022-08-03T00:28:18;9.57;;;6.50;;
73142;SDS011;61343;53.694;9.988;2022-08-03T00:30:43;9.83;;;6.03;;
73142;SDS011;61343;53.694;9.988;2022-08-03T00:33:08;10.17;;;6.63;;
73142;SDS011;61343;53.694;9.988;2022-08-03T00:35:34;10.07;;;6.30;;
73142;SDS011;61343;53.694;9.988;2022-08-03T00:38:00;9.13;;;6.35;;
73142;SDS011;61343;53.694;9.988;2022-08-03T00:40:26;10.97;;;6.23;;
73142;SDS011;61343;53.694;9.988;2022-08-03T00:45:22;8.80;;;6.00;;
73142;SDS011;61343;53.694;9.988;2022-08-03T00:47:49;9.15;;;5.93;;
73142;SDS011;61343;53.694;9.988;2022-08-03T00:50:15;8.20;;;5.90;;
73142;SDS011;61343;53.694;9.988;2022-08-03T00:52:41;10.02;;;6.03;;
73142;SDS011;61343;53.694;9.988;2022-08-03T00:55:07;9.40;;;6.20;;
73142;SDS011;61343;53.694;9.988;2022-08-03T00:57:33;9.02;;;5.53;;
73142;SDS011;61343;53.694;9.988;2022-08-03T00:59:59;8.27;;;5.43;;
73142;SDS011;61343;53.694;9.988;2022-08-03T01:02:25;8.97;;;5.63;;
73142;SDS011;61343;53.694;9.988;2022-08-03T01:04:51;9.40;;;6.22;;
73142;SDS011;61343;53.694;9.988;2022-08-03T01:07:23;8.88;;;6.22;;
73142;SDS011;61343;53.694;9.988;2022-08-03T01:13:02;9.30;;;6.50;;
73142;SDS011;61343;53.694;9.988;2022-08-03T01:15:42;8.68;;;6.40;;
73142;SDS011;61343;53.694;9.988;2022-08-03T01:18:19;9.70;;;6.10;;
73142;SDS011;61343;53.694;9.988;2022-08-03T01:20:51;12.40;;;6.65;;
73142;SDS011;61343;53.694;9.988;2022-08-03T01:32:08;9.38;;;6.10;;
73142;SDS011;61343;53.694;9.988;2022-08-03T01:34:41;10.40;;;6.40;;
73142;SDS011;61343;53.694;9.988;2022-08-03T01:37:11;9.60;;;6.27;;
73142;SDS011;61343;53.694;9.988;2022-08-03T01:39:40;9.85;;;6.10;;
73142;SDS011;61343;53.694;9.988;2022-08-03T01:42:06;9.35;;;6.28;;
73142;SDS011;61343;53.694;9.988;2022-08-03T01:44:39;10.98;;;6.07;;
73142;SDS011;61343;53.694;9.988;2022-08-03T01:47:07;9.13;;;6.47;;
73142;SDS011;61343;53.694;9.988;2022-08-03T01:49:36;10.43;;;6.13;;
73142;SDS011;61343;53.694;9.988;2022-08-03T01:52:03;9.98;;;6.35;;
73142;SDS011;61343;53.694;9.988;2022-08-03T01:54:31;8.65;;;6.22;;
73142;SDS011;61343;53.694;9.988;2022-08-03T01:57:00;9.23;;;6.45;;
73142;SDS011;61343;53.694;9.988;2022-08-03T01:59:26;10.25;;;6.45;;
73142;SDS011;61343;53.694;9.988;2022-08-03T02:01:54;10.03;;;6.40;;
73142;SDS011;61343;53.694;9.988;2022-08-03T02:04:21;10.18;;;6.20;;
73142;SDS011;61343;53.694;9.988;2022-08-03T02:06:49;8.40;;;6.13;;
73142;SDS011;61343;53.694;9.988;2022-08-03T02:09:16;10.52;;;6.53;;
73142;SDS011;61343;53.694;9.988;2022-08-03T02:11:43;8.90;;;6.30;;
73142;SDS011;61343;53.694;9.988;2022-08-03T02:14:11;9.10;;;6.40;;
73142;SDS011;61343;53.694;9.988;2022-08-03T02:16:38;9.25;;;6.30;;
73142;SDS011;61343;53.694;9.988;2022-08-03T02:19:05;8.48;;;6.07;;
73142;SDS011;61343;53.694;9.988;2022-08-03T02:21:34;7.60;;;5.88;;
73142;SDS011;61343;53.694;9.988;2022-08-03T02:24:01;9.98;;;6.22;;
73142;SDS011;61343;53.694;9.988;2022-08-03T02:26:28;8.47;;;6.20;;
73142;SDS011;61343;53.694;9.988;2022-08-03T02:28:55;9.98;;;6.20;;
73142;SDS011;61343;53.694;9.988;2022-08-03T02:31:24;8.80;;;6.13;;
73142;SDS011;61343;53.694;9.988;2022-08-03T02:33:55;8.98;;;6.40;;
73142;SDS011;61343;53.694;9.988;2022-08-03T02:36:27;8.88;;;6.13;;
73142;SDS011;61343;53.694;9.988;2022-08-03T02:38:56;9.13;;;6.00;;
73142;SDS011;61343;53.694;9.988;2022-08-03T02:41:24;9.80;;;6.30;;
73142;SDS011;61343;53.694;9.988;2022-08-03T02:43:54;9.45;;;6.35;;
73142;SDS011;61343;53.694;9.988;2022-08-03T02:46:23;9.00;;;6.25;;
73142;SDS011;61343;53.694;9.988;2022-08-03T02:49:01;8.32;;;6.38;;
73142;SDS011;61343;53.694;9.988;2022-08-03T02:51:28;11.37;;;6.70;;
73142;SDS011;61343;53.694;9.988;2022-08-03T02:53:56;8.00;;;5.88;;
73142;SDS011;61343;53.694;9.988;2022-08-03T02:56:25;9.43;;;6.55;;
73142;SDS011;61343;53.694;9.988;2022-08-03T02:58:52;8.50;;;6.22;;
73142;SDS011;61343;53.694;9.988;2022-08-03T03:01:19;8.85;;;6.40;;
73142;SDS011;61343;53.694;9.988;2022-08-03T03:03:49;10.10;;;6.47;;
73142;SDS011;61343;53.694;9.988;2022-08-03T03:06:16;8.50;;;6.32;;
73142;SDS011;61343;53.694;9.988;2022-08-03T03:08:43;10.13;;;6.60;;
73142;SDS011;61343;53.694;9.988;2022-08-03T03:11:10;9.13;;;6.30;;
73142;SDS011;61343;53.694;9.988;2022-08-03T03:13:37;9.10;;;6.80;;
73142;SDS011;61343;53.694;9.988;2022-08-03T03:16:05;9.47;;;6.13;;
73142;SDS011;61343;53.694;9.988;2022-08-03T03:18:32;8.98;;;6.32;;
73142;SDS011;61343;53.694;9.988;2022-08-03T03:20:59;9.52;;;7.03;;
73142;SDS011;61343;53.694;9.988;2022-08-03T03:23:26;9.65;;;6.40;;
73142;SDS011;61343;53.694;9.988;2022-08-03T03:25:53;9.02;;;6.10;;
73142;SDS011;61343;53.694;9.988;2022-08-03T03:28:20;9.43;;;6.50;;
73142;SDS011;61343;53.694;9.988;2022-08-03T03:30:47;10.82;;;6.72;;
73142;SDS011;61343;53.694;9.988;2022-08-03T03:33:13;9.85;;;6.85;;
73142;SDS011;61343;53.694;9.988;2022-08-03T03:35:39;8.67;;;6.37;;
73142;SDS011;61343;53.694;9.988;2022-08-03T03:38:07;9.53;;;6.90;;
73142;SDS011;61343;53.694;9.988;2022-08-03T03:40:33;9.13;;;6.55;;
73142;SDS011;61343;53.694;9.988;2022-08-03T03:42:59;9.10;;;6.63;;
73142;SDS011;61343;53.694;9.988;2022-08-03T03:45:25;9.70;;;7.10;;
73142;SDS011;61343;53.694;9.988;2022-08-03T03:47:51;9.73;;;6.57;;
73142;SDS011;61343;53.694;9.988;2022-08-03T03:50:17;9.18;;;6.63;;
73142;SDS011;61343;53.694;9.988;2022-08-03T03:52:43;9.53;;;6.43;;
73142;SDS011;61343;53.694;9.988;2022-08-03T03:55:08;9.95;;;6.80;;
73142;SDS011;61343;53.694;9.988;2022-08-03T03:57:34;10.77;;;6.70;;
73142;SDS011;61343;53.694;9.988;2022-08-03T03:59:59;9.40;;;6.47;;
73142;SDS011;61343;53.694;9.988;2022-08-03T04:02:24;11.73;;;7.00;;
73142;SDS011;61343;53.694;9.988;2022-08-03T04:04:50;9.57;;;6.97;;
73142;SDS011;61343;53.694;9.988;2022-08-03T04:07:37;9.98;;;6.78;;
73142;SDS011;61343;53.694;9.988;2022-08-03T04:10:38;11.40;;;6.40;;
73142;SDS011;61343;53.694;9.988;2022-08-03T04:13:24;9.60;;;6.83;;
73142;SDS011;61343;53.694;9.988;2022-08-03T04:15:53;8.90;;;6.90;;
73142;SDS011;61343;53.694;9.988;2022-08-03T04:18:21;10.30;;;7.20;;
73142;SDS011;61343;53.694;9.988;2022-08-03T04:20:48;10.25;;;6.80;;
73142;SDS011;61343;53.694;9.988;2022-08-03T04:23:16;10.40;;;6.78;;
73142;SDS011;61343;53.694;9.988;2022-08-03T04:25:45;10.07;;;6.90;;
73142;SDS011;61343;53.694;9.988;2022-08-03T04:28:13;9.60;;;7.32;;
73142;SDS011;61343;53.694;9.988;2022-08-03T04:30:40;10.75;;;6.80;;
73142;SDS011;61343;53.694;9.988;2022-08-03T04:33:12;9.50;;;6.80;;
73142;SDS011;61343;53.694;9.988;2022-08-03T04:35:40;10.13;;;6.90;;
73142;SDS011;61343;53.694;9.988;2022-08-03T04:38:08;10.27;;;6.70;;
73142;SDS011;61343;53.694;9.988;2022-08-03T04:40:40;9.55;;;7.10;;
73142;SDS011;61343;53.694;9.988;2022-08-03T04:43:08;9.43;;;6.95;;
73142;SDS011;61343;53.694;9.988;2022-08-03T04:45:35;10.48;;;7.20;;
73142;SDS011;61343;53.694;9.988;2022-08-03T04:48:02;12.40;;;7.28;;
73142;SDS011;61343;53.694;9.988;2022-08-03T04:50:28;9.83;;;7.50;;
73142;SDS011;61343;53.694;9.988;2022-08-03T04:52:54;9.50;;;7.18;;
73142;SDS011;61343;53.694;9.988;2022-08-03T04:55:26;9.97;;;6.87;;
73142;SDS011;61343;53.694;9.988;2022-08-03T04:57:53;11.13;;;8.07;;
73142;SDS011;61343;53.694;9.988;2022-08-03T05:00:19;11.63;;;7.43;;
73142;SDS011;61343;53.694;9.988;2022-08-03T05:02:44;11.23;;;8.03;;
73142;SDS011;61343;53.694;9.988;2022-08-03T05:05:10;12.03;;;7.87;;
73142;SDS011;61343;53.694;9.988;2022-08-03T05:07:36;11.90;;;7.57;;
73142;SDS011;61343;53.694;9.988;2022-08-03T05:10:03;10.13;;;7.03;;
73142;SDS011;61343;53.694;9.988;2022-08-03T05:12:32;9.43;;;7.33;;
73142;SDS011;61343;53.694;9.988;2022-08-03T05:14:57;11.87;;;7.13;;
73142;SDS011;61343;53.694;9.988;2022-08-03T05:17:22;10.70;;;7.63;;
73142;SDS011;61343;53.694;9.988;2022-08-03T05:19:47;9.00;;;7.30;;
73142;SDS011;61343;53.694;9.988;2022-08-03T05:22:13;11.23;;;7.53;;
73142;SDS011;61343;53.694;9.988;2022-08-03T05:24:38;9.97;;;7.07;;
73142;SDS011;61343;53.694;9.988;2022-08-03T05:27:03;10.93;;;7.07;;
73142;SDS011;61343;53.694;9.988;2022-08-03T05:29:29;12.90;;;6.97;;
73142;SDS011;61343;53.694;9.988;2022-08-03T05:31:54;9.80;;;6.90;;
73142;SDS011;61343;53.694;9.988;2022-08-03T05:34:19;10.20;;;7.03;;
73142;SDS011;61343;53.694;9.988;2022-08-03T05:36:45;11.80;;;7.70;;
73142;SDS011;61343;53.694;9.988;2022-08-03T05:39:10;13.93;;;7.50;;
73142;SDS011;61343;53.694;9.988;2022-08-03T05:41:35;9.50;;;7.23;;
73142;SDS011;61343;53.694;9.988;2022-08-03T05:44:00;12.93;;;7.60;;
73142;SDS011;61343;53.694;9.988;2022-08-03T05:46:26;10.53;;;7.27;;
73142;SDS011;61343;53.694;9.988;2022-08-03T05:48:52;13.17;;;7.10;;
73142;SDS011;61343;53.694;9.988;2022-08-03T05:51:17;10.37;;;6.80;;
73142;SDS011;61343;53.694;9.988;2022-08-03T05:53:42;13.10;;;7.30;;
73142;SDS011;61343;53.694;9.988;2022-08-03T05:56:08;11.17;;;7.20;;
73142;SDS011;61343;53.694;9.988;2022-08-03T05:58:34;11.27;;;6.33;;
73142;SDS011;61343;53.694;9.988;2022-08-03T06:01:00;10.02;;;6.30;;
73142;SDS011;61343;53.694;9.988;2022-08-03T06:03:25;10.23;;;6.40;;
73142;SDS011;61343;53.694;9.988;2022-08-03T06:05:50;9.03;;;6.40;;
73142;SDS011;61343;53.694;9.988;2022-08-03T06:08:20;10.50;;;6.50;;
73142;SDS011;61343;53.694;9.988;2022-08-03T06:10:45;17.70;;;7.30;;
73142;SDS011;61343;53.694;9.988;2022-08-03T06:13:11;10.67;;;6.30;;
73142;SDS011;61343;53.694;9.988;2022-08-03T06:15:36;10.17;;;6.10;;
73142;SDS011;61343;53.694;9.988;2022-08-03T06:18:01;12.23;;;6.70;;
73142;SDS011;61343;53.694;9.988;2022-08-03T06:20:26;10.67;;;6.57;;
73142;SDS011;61343;53.694;9.988;2022-08-03T06:22:52;8.27;;;5.45;;
73142;SDS011;61343;53.694;9.988;2022-08-03T06:25:18;10.83;;;5.90;;
73142;SDS011;61343;53.694;9.988;2022-08-03T06:27:44;9.35;;;5.50;;
73142;SDS011;61343;53.694;9.988;2022-08-03T06:30:09;9.73;;;5.60;;
73142;SDS011;61343;53.694;9.988;2022-08-03T06:32:36;10.48;;;5.25;;
73142;SDS011;61343;53.694;9.988;2022-08-03T06:35:03;9.50;;;5.90;;
73142;SDS011;61343;53.694;9.988;2022-08-03T06:37:30;12.25;;;5.70;;
73142;SDS011;61343;53.694;9.988;2022-08-03T06:39:55;9.23;;;5.53;;
73142;SDS011;61343;53.694;9.988;2022-08-03T06:42:20;12.03;;;5.50;;
73142;SDS011;61343;53.694;9.988;2022-08-03T06:44:46;11.47;;;5.67;;
73142;SDS011;61343;53.694;9.988;2022-08-03T06:47:11;11.10;;;5.33;;
73142;SDS011;61343;53.694;9.988;2022-08-03T06:49:36;8.27;;;4.97;;
73142;SDS011;61343;53.694;9.988;2022-08-03T06:52:02;8.55;;;5.13;;
73142;SDS011;61343;53.694;9.988;2022-08-03T06:54:27;9.17;;;4.70;;
73142;SDS011;61343;53.694;9.988;2022-08-03T06:56:52;7.77;;;4.53;;
73142;SDS011;61343;53.694;9.988;2022-08-03T06:59:18;7.87;;;4.30;;
73142;SDS011;61343;53.694;9.988;2022-08-03T07:01:43;7.93;;;3.97;;
73142;SDS011;61343;53.694;9.988;2022-08-03T07:04:08;10.00;;;4.27;;
73142;SDS011;61343;53.694;9.988;2022-08-03T07:06:34;7.77;;;4.20;;
73142;SDS011;61343;53.694;9.988;2022-08-03T07:08:59;6.70;;;3.67;;
73142;SDS011;61343;53.694;9.988;2022-08-03T07:11:25;6.07;;;3.47;;
73142;SDS011;61343;53.694;9.988;2022-08-03T07:13:50;7.60;;;3.60;;
73142;SDS011;61343;53.694;9.988;2022-08-03T07:16:15;5.80;;;3.03;;
73142;SDS011;61343;53.694;9.988;2022-08-03T07:18:41;6.73;;;2.80;;
73142;SDS011;61343;53.694;9.988;2022-08-03T07:21:06;7.57;;;2.83;;
73142;SDS011;61343;53.694;9.988;2022-08-03T07:23:33;7.10;;;2.50;;
73142;SDS011;61343;53.694;9.988;2022-08-03T07:25:58;5.20;;;2.53;;
73142;SDS011;61343;53.694;9.988;2022-08-03T07:28:24;8.17;;;2.80;;
73142;SDS011;61343;53.694;9.988;2022-08-03T07:30:49;7.70;;;2.60;;
73142;SDS011;61343;53.694;9.988;2022-08-03T07:33:14;5.87;;;2.80;;
73142;SDS011;61343;53.694;9.988;2022-08-03T07:35:40;7.97;;;2.50;;
73142;SDS011;61343;53.694;9.988;2022-08-03T07:38:05;5.93;;;2.60;;
73142;SDS011;61343;53.694;9.988;2022-08-03T07:40:30;5.97;;;2.70;;
73142;SDS011;61343;53.694;9.988;2022-08-03T07:42:56;6.93;;;2.43;;
73142;SDS011;61343;53.694;9.988;2022-08-03T07:45:22;6.15;;;2.42;;
73142;SDS011;61343;53.694;9.988;2022-08-03T07:47:48;8.15;;;2.60;;
73142;SDS011;61343;53.694;9.988;2022-08-03T07:50:14;5.45;;;2.60;;
73142;SDS011;61343;53.694;9.988;2022-08-03T07:52:39;6.93;;;2.57;;
73142;SDS011;61343;53.694;9.988;2022-08-03T07:55:14;5.57;;;2.90;;
73142;SDS011;61343;53.694;9.988;2022-08-03T07:57:41;5.80;;;2.35;;
73142;SDS011;61343;53.694;9.988;2022-08-03T08:00:11;6.33;;;2.43;;
73142;SDS011;61343;53.694;9.988;2022-08-03T08:02:41;5.80;;;2.40;;
73142;SDS011;61343;53.694;9.988;2022-08-03T08:05:07;9.95;;;3.83;;
73142;SDS011;61343;53.694;9.988;2022-08-03T08:07:34;7.63;;;3.08;;
73142;SDS011;61343;53.694;9.988;2022-08-03T08:10:00;5.97;;;2.50;;
73142;SDS011;61343;53.694;9.988;2022-08-03T08:12:25;5.57;;;2.40;;
73142;SDS011;61343;53.694;9.988;2022-08-03T08:14:51;5.17;;;2.20;;
73142;SDS011;61343;53.694;9.988;2022-08-03T08:17:16;6.00;;;2.30;;
73142;SDS011;61343;53.694;9.988;2022-08-03T08:19:41;4.80;;;2.20;;
73142;SDS011;61343;53.694;9.988;2022-08-03T08:22:06;8.40;;;2.57;;
73142;SDS011;61343;53.694;9.988;2022-08-03T08:24:32;5.47;;;2.80;;
73142;SDS011;61343;53.694;9.988;2022-08-03T08:26:58;8.50;;;2.60;;
73142;SDS011;61343;53.694;9.988;2022-08-03T08:29:25;4.63;;;2.30;;
73142;SDS011;61343;53.694;9.988;2022-08-03T08:31:50;6.60;;;2.63;;
73142;SDS011;61343;53.694;9.988;2022-08-03T08:34:15;5.73;;;2.30;;
73142;SDS011;61343;53.694;9.988;2022-08-03T08:36:40;7.07;;;2.30;;
73142;SDS011;61343;53.694;9.988;2022-08-03T08:39:06;10.73;;;2.73;;
73142;SDS011;61343;53.694;9.988;2022-08-03T08:41:31;4.73;;;2.43;;
73142;SDS011;61343;53.694;9.988;2022-08-03T08:43:58;8.52;;;2.60;;
73142;SDS011;61343;53.694;9.988;2022-08-03T08:46:24;6.10;;;2.10;;
73142;SDS011;61343;53.694;9.988;2022-08-03T08:48:50;6.83;;;2.47;;
73142;SDS011;61343;53.694;9.988;2022-08-03T08:51:17;6.03;;;2.40;;
73142;SDS011;61343;53.694;9.988;2022-08-03T08:53:44;6.35;;;2.60;;
73142;SDS011;61343;53.694;9.988;2022-08-03T08:56:14;6.83;;;2.20;;
73142;SDS011;61343;53.694;9.988;2022-08-03T08:58:43;9.30;;;2.40;;
73142;SDS011;61343;53.694;9.988;2022-08-03T09:01:12;6.72;;;2.47;;
73142;SDS011;61343;53.694;9.988;2022-08-03T09:03:37;7.07;;;2.30;;
73142;SDS011;61343;53.694;9.988;2022-08-03T09:06:03;6.77;;;2.63;;
73142;SDS011;61343;53.694;9.988;2022-08-03T09:08:29;7.50;;;2.50;;
73142;SDS011;61343;53.694;9.988;2022-08-03T09:10:55;9.50;;;2.40;;
73142;SDS011;61343;53.694;9.988;2022-08-03T09:13:21;7.13;;;2.30;;
73142;SDS011;61343;53.694;9.988;2022-08-03T09:15:46;6.00;;;2.00;;
73142;SDS011;61343;53.694;9.988;2022-08-03T09:18:13;8.57;;;2.03;;
73142;SDS011;61343;53.694;9.988;2022-08-03T09:20:52;8.05;;;2.45;;
73142;SDS011;61343;53.694;9.988;2022-08-03T09:23:44;6.65;;;2.38;;
73142;SDS011;61343;53.694;9.988;2022-08-03T09:26:11;8.13;;;2.25;;
73142;SDS011;61343;53.694;9.988;2022-08-03T09:28:36;10.23;;;2.50;;
73142;SDS011;61343;53.694;9.988;2022-08-03T09:31:01;7.70;;;2.33;;
73142;SDS011;61343;53.694;9.988;2022-08-03T09:33:27;6.13;;;2.20;;
73142;SDS011;61343;53.694;9.988;2022-08-03T09:35:52;8.35;;;2.58;;
73142;SDS011;61343;53.694;9.988;2022-08-03T09:38:21;5.97;;;2.20;;
73142;SDS011;61343;53.694;9.988;2022-08-03T09:40:48;6.70;;;2.47;;
73142;SDS011;61343;53.694;9.988;2022-08-03T09:43:14;6.93;;;2.20;;
73142;SDS011;61343;53.694;9.988;2022-08-03T09:45:41;8.25;;;2.15;;
73142;SDS011;61343;53.694;9.988;2022-08-03T09:48:25;6.85;;;2.03;;
73142;SDS011;61343;53.694;9.988;2022-08-03T09:50:57;11.17;;;2.13;;
73142;SDS011;61343;53.694;9.988;2022-08-03T09:53:24;7.18;;;2.10;;
73142;SDS011;61343;53.694;9.988;2022-08-03T09:55:50;5.28;;;2.00;;
73142;SDS011;61343;53.694;9.988;2022-08-03T09:58:18;9.18;;;2.00;;
73142;SDS011;61343;53.694;9.988;2022-08-03T10:00:51;5.18;;;1.90;;
73142;SDS011;61343;53.694;9.988;2022-08-03T10:03:20;6.03;;;2.27;;
73142;SDS011;61343;53.694;9.988;2022-08-03T10:05:46;6.80;;;2.17;;
73142;SDS011;61343;53.694;9.988;2022-08-03T10:08:15;6.07;;;1.90;;
73142;SDS011;61343;53.694;9.988;2022-08-03T10:10:43;4.80;;;1.73;;
73142;SDS011;61343;53.694;9.988;2022-08-03T10:13:13;8.82;;;1.90;;
73142;SDS011;61343;53.694;9.988;2022-08-03T10:15:41;5.88;;;1.90;;
73142;SDS011;61343;53.694;9.988;2022-08-03T10:18:07;7.07;;;2.33;;
73142;SDS011;61343;53.694;9.988;2022-08-03T10:20:36;5.30;;;1.80;;
73142;SDS011;61343;53.694;9.988;2022-08-03T10:23:05;7.70;;;1.85;;
73142;SDS011;61343;53.694;9.988;2022-08-03T10:25:32;9.10;;;1.93;;
73142;SDS011;61343;53.694;9.988;2022-08-03T10:28:00;6.85;;;1.95;;
73142;SDS011;61343;53.694;9.988;2022-08-03T10:30:28;6.43;;;1.98;;
73142;SDS011;61343;53.694;9.988;2022-08-03T10:35:34;6.13;;;1.90;;
73142;SDS011;61343;53.694;9.988;2022-08-03T10:38:11;5.87;;;1.60;;
73142;SDS011;61343;53.694;9.988;2022-08-03T10:40:42;5.60;;;1.85;;
73142;SDS011;61343;53.694;9.988;2022-08-03T10:43:09;7.32;;;1.85;;
73142;SDS011;61343;53.694;9.988;2022-08-03T10:45:42;6.82;;;2.00;;
73142;SDS011;61343;53.694;9.988;2022-08-03T10:48:09;7.50;;;1.60;;
73142;SDS011;61343;53.694;9.988;2022-08-03T10:50:36;8.67;;;2.17;;
73142;SDS011;61343;53.694;9.988;2022-08-03T10:53:04;7.13;;;1.98;;
73142;SDS011;61343;53.694;9.988;2022-08-03T11:01:02;6.63;;;1.92;;
73142;SDS011;61343;53.694;9.988;2022-08-03T11:03:28;5.80;;;1.60;;
73142;SDS011;61343;53.694;9.988;2022-08-03T11:05:55;7.30;;;1.67;;
73142;SDS011;61343;53.694;9.988;2022-08-03T11:08:39;6.80;;;1.50;;
73142;SDS011;61343;53.694;9.988;2022-08-03T11:16:45;6.15;;;1.75;;
73142;SDS011;61343;53.694;9.988;2022-08-03T11:19:16;5.95;;;1.90;;
73142;SDS011;61343;53.694;9.988;2022-08-03T11:48:14;5.75;;;1.60;;
73142;SDS011;61343;53.694;9.988;2022-08-03T11:50:41;5.97;;;1.92;;
73142;SDS011;61343;53.694;9.988;2022-08-03T11:53:12;5.23;;;1.43;;
73142;SDS011;61343;53.694;9.988;2022-08-03T11:55:40;8.38;;;1.60;;
73142;SDS011;61343;53.694;9.988;2022-08-03T11:58:09;5.82;;;1.52;;
73142;SDS011;61343;53.694;9.988;2022-08-03T12:00:39;8.82;;;1.70;;
73142;SDS011;61343;53.694;9.988;2022-08-03T12:03:06;8.53;;;1.53;;
73142;SDS011;61343;53.694;9.988;2022-08-03T12:05:34;6.97;;;2.08;;
73142;SDS011;61343;53.694;9.988;2022-08-03T12:08:04;6.75;;;1.60;;
73142;SDS011;61343;53.694;9.988;2022-08-03T12:10:30;7.03;;;1.47;;
73142;SDS011;61343;53.694;9.988;2022-08-03T12:12:57;8.52;;;1.80;;
73142;SDS011;61343;53.694;9.988;2022-08-03T12:15:33;7.60;;;1.83;;
73142;SDS011;61343;53.694;9.988;2022-08-03T12:18:01;11.15;;;1.70;;
73142;SDS011;61343;53.694;9.988;2022-08-03T12:20:28;7.67;;;1.60;;
73142;SDS011;61343;53.694;9.988;2022-08-03T12:23:00;5.53;;;1.63;;
73142;SDS011;61343;53.694;9.988;2022-08-03T12:25:28;5.30;;;1.50;;
73142;SDS011;61343;53.694;9.988;2022-08-03T12:28:04;9.53;;;1.70;;
73142;SDS011;61343;53.694;9.988;2022-08-03T12:30:31;6.50;;;1.48;;
73142;SDS011;61343;53.694;9.988;2022-08-03T12:32:57;7.43;;;1.47;;
73142;SDS011;61343;53.694;9.988;2022-08-03T12:35:22;7.53;;;1.60;;
73142;SDS011;61343;53.694;9.988;2022-08-03T12:37:49;8.98;;;1.90;;
73142;SDS011;61343;53.694;9.988;2022-08-03T12:40:15;7.93;;;1.80;;
73142;SDS011;61343;53.694;9.988;2022-08-03T12:42:48;5.03;;;1.27;;
73142;SDS011;61343;53.694;9.988;2022-08-03T12:45:27;6.00;;;1.50;;
73142;SDS011;61343;53.694;9.988;2022-08-03T12:47:56;5.28;;;1.65;;
73142;SDS011;61343;53.694;9.988;2022-08-03T12:52:53;8.37;;;1.63;;
73142;SDS011;61343;53.694;9.988;2022-08-03T12:55:20;7.32;;;1.60;;
73142;SDS011;61343;53.694;9.988;2022-08-03T12:57:46;6.15;;;1.63;;
73142;SDS011;61343;53.694;9.988;2022-08-03T13:00:18;5.10;;;1.47;;
73142;SDS011;61343;53.694;9.988;2022-08-03T13:02:44;7.13;;;1.60;;
73142;SDS011;61343;53.694;9.988;2022-08-03T13:05:10;8.07;;;1.63;;
73142;SDS011;61343;53.694;9.988;2022-08-03T13:07:40;6.93;;;1.70;;
73142;SDS011;61343;53.694;9.988;2022-08-03T13:10:06;6.90;;;1.58;;
73142;SDS011;61343;53.694;9.988;2022-08-03T13:12:32;5.97;;;1.40;;
73142;SDS011;61343;53.694;9.988;2022-08-03T13:15:09;6.50;;;1.70;;
73142;SDS011;61343;53.694;9.988;2022-08-03T13:17:35;8.40;;;1.80;;
73142;SDS011;61343;53.694;9.988;2022-08-03T13:20:00;5.10;;;1.50;;
73142;SDS011;61343;53.694;9.988;2022-08-03T13:22:26;8.00;;;1.50;;
73142;SDS011;61343;53.694;9.988;2022-08-03T13:24:54;6.40;;;1.53;;
73142;SDS011;61343;53.694;9.988;2022-08-03T13:27:21;8.10;;;1.50;;
73142;SDS011;61343;53.694;9.988;2022-08-03T13:29:47;5.63;;;1.50;;
73142;SDS011;61343;53.694;9.988;2022-08-03T13:32:12;9.90;;;1.93;;
73142;SDS011;61343;53.694;9.988;2022-08-03T13:34:38;11.13;;;1.60;;
73142;SDS011;61343;53.694;9.988;2022-08-03T13:37:03;6.13;;;1.50;;
73142;SDS011;61343;53.694;9.988;2022-08-03T13:39:29;7.57;;;1.58;;
73142;SDS011;61343;53.694;9.988;2022-08-03T13:41:54;7.63;;;1.70;;
73142;SDS011;61343;53.694;9.988;2022-08-03T13:44:19;6.13;;;1.70;;
73142;SDS011;61343;53.694;9.988;2022-08-03T13:46:45;7.38;;;1.80;;
73142;SDS011;61343;53.694;9.988;2022-08-03T13:49:10;6.50;;;1.60;;
73142;SDS011;61343;53.694;9.988;2022-08-03T13:51:36;6.30;;;1.53;;
73142;SDS011;61343;53.694;9.988;2022-08-03T13:54:01;7.20;;;1.70;;
73142;SDS011;61343;53.694;9.988;2022-08-03T13:56:28;10.70;;;1.80;;
73142;SDS011;61343;53.694;9.988;2022-08-03T13:58:54;8.93;;;1.90;;
73142;SDS011;61343;53.694;9.988;2022-08-03T14:01:20;6.30;;;1.60;;
73142;SDS011;61343;53.694;9.988;2022-08-03T14:03:45;5.53;;;1.50;;
73142;SDS011;61343;53.694;9.988;2022-08-03T14:06:13;9.63;;;1.70;;
73142;SDS011;61343;53.694;9.988;2022-08-03T14:08:38;8.35;;;1.63;;
73142;SDS011;61343;53.694;9.988;2022-08-03T14:11:04;5.17;;;1.40;;
73142;SDS011;61343;53.694;9.988;2022-08-03T14:13:29;6.37;;;1.30;;
73142;SDS011;61343;53.694;9.988;2022-08-03T14:15:54;6.93;;;1.30;;
73142;SDS011;61343;53.694;9.988;2022-08-03T14:18:20;6.93;;;1.70;;
73142;SDS011;61343;53.694;9.988;2022-08-03T14:20:46;7.50;;;1.77;;
73142;SDS011;61343;53.694;9.988;2022-08-03T14:23:11;6.17;;;1.30;;
73142;SDS011;61343;53.694;9.988;2022-08-03T14:25:36;10.20;;;1.53;;
73142;SDS011;61343;53.694;9.988;2022-08-03T14:28:02;8.30;;;2.33;;
73142;SDS011;61343;53.694;9.988;2022-08-03T14:30:27;6.87;;;1.77;;
73142;SDS011;61343;53.694;9.988;2022-08-03T14:32:53;8.87;;;1.60;;
73142;SDS011;61343;53.694;9.988;2022-08-03T14:35:18;8.07;;;1.48;;
73142;SDS011;61343;53.694;9.988;2022-08-03T14:37:43;7.47;;;1.80;;
73142;SDS011;61343;53.694;9.988;2022-08-03T14:40:09;5.20;;;1.77;;
73142;SDS011;61343;53.694;9.988;2022-08-03T14:42:34;5.27;;;1.50;;
73142;SDS011;61343;53.694;9.988;2022-08-03T14:44:59;6.50;;;1.63;;
73142;SDS011;61343;53.694;9.988;2022-08-03T14:47:25;6.83;;;1.53;;
73142;SDS011;61343;53.694;9.988;2022-08-03T14:49:50;5.63;;;1.30;;
73142;SDS011;61343;53.694;9.988;2022-08-03T14:52:15;6.20;;;1.40;;
73142;SDS011;61343;53.694;9.988;2022-08-03T14:54:41;7.90;;;1.67;;
73142;SDS011;61343;53.694;9.988;2022-08-03T14:57:06;7.30;;;1.60;;
73142;SDS011;61343;53.694;9.988;2022-08-03T14:59:32;5.67;;;1.60;;
73142;SDS011;61343;53.694;9.988;2022-08-03T15:01:57;6.83;;;1.50;;
73142;SDS011;61343;53.694;9.988;2022-08-03T15:04:22;9.02;;;1.50;;
73142;SDS011;61343;53.694;9.988;2022-08-03T15:06:47;6.77;;;1.50;;
73142;SDS011;61343;53.694;9.988;2022-08-03T15:09:13;5.70;;;1.43;;
73142;SDS011;61343;53.694;9.988;2022-08-03T15:11:38;8.53;;;1.77;;
73142;SDS011;61343;53.694;9.988;2022-08-03T15:14:04;5.97;;;1.67;;
73142;SDS011;61343;53.694;9.988;2022-08-03T15:16:29;6.83;;;1.53;;
73142;SDS011;61343;53.694;9.988;2022-08-03T15:18:55;7.72;;;1.60;;
73142;SDS011;61343;53.694;9.988;2022-08-03T15:21:21;7.83;;;1.70;;
73142;SDS011;61343;53.694;9.988;2022-08-03T15:23:46;6.33;;;1.50;;
73142;SDS011;61343;53.694;9.988;2022-08-03T15:26:11;5.33;;;1.43;;
73142;SDS011;61343;53.694;9.988;2022-08-03T15:28:36;6.80;;;1.50;;
73142;SDS011;61343;53.694;9.988;2022-08-03T15:31:02;7.23;;;1.77;;
73142;SDS011;61343;53.694;9.988;2022-08-03T15:33:27;6.40;;;1.70;;
73142;SDS011;61343;53.694;9.988;2022-08-03T15:35:53;7.80;;;1.70;;
73142;SDS011;61343;53.694;9.988;2022-08-03T15:38:18;6.27;;;2.30;;
73142;SDS011;61343;53.694;9.988;2022-08-03T15:40:46;5.85;;;1.70;;
73142;SDS011;61343;53.694;9.988;2022-08-03T15:43:12;9.53;;;1.67;;